Time;durP1;ratioP1;P1;durP2;ratioP2;P2;SDS_P1;SDS_P2;PMS_P1;PMS_P2;Temp;Humidity;BMP_temperature;BMP_pressure;BME280_temperature;BME280_humidity;BME280_pressure;Samples;Min_cycle;Max_cycle;Signal;HPM_P1;HPM_P2
2022/01/18 00:00:24;;;;;;;6.88;5.20;;;19.50;34.10;;;;;;5088454;28;46916;-15
2022/01/18 00:02:52;;;;;;;6.43;5.15;;;19.60;34.10;;;;;;5088592;28;47116;-15
2022/01/18 00:05:18;;;;;;;6.25;5.28;;;19.60;34.10;;;;;;5088478;28;47085;-14
2022/01/18 00:07:46;;;;;;;5.95;5.03;;;19.50;34.00;;;;;;5088335;28;46819;-15
2022/01/18 00:10:13;;;;;;;6.28;4.93;;;19.50;34.00;;;;;;5088074;28;46813;-15
2022/01/18 00:15:36;;;;;;;5.88;4.82;;;19.50;34.00;;;;;;5073606;28;47674;-16
2022/01/18 00:18:10;;;;;;;6.35;4.85;;;19.50;34.00;;;;;;5088051;28;46853;-15
2022/01/18 00:20:48;;;;;;;5.85;5.10;;;19.50;33.90;;;;;;5088204;28;46816;-14
2022/01/18 00:23:15;;;;;;;6.68;5.20;;;19.50;33.90;;;;;;5088435;28;46904;-15
2022/01/18 00:25:45;;;;;;;8.63;6.20;;;19.50;33.90;;;;;;5088127;28;48897;-15
2022/01/18 00:28:12;;;;;;;7.43;5.78;;;19.40;33.90;;;;;;5087761;28;46897;-14
2022/01/18 00:31:05;;;;;;;6.85;5.47;;;19.40;33.90;;;;;;5088292;27;46913;-15
2022/01/18 00:36:29;;;;;;;5.53;4.80;;;19.50;33.80;;;;;;5080535;28;47755;-15
2022/01/18 00:38:57;;;;;;;6.82;5.53;;;19.50;33.80;;;;;;5087929;28;46961;-15
2022/01/18 00:41:25;;;;;;;7.38;5.35;;;19.40;33.70;;;;;;5087801;27;46938;-15
2022/01/18 00:43:52;;;;;;;5.00;4.40;;;19.40;33.80;;;;;;5087470;27;47281;-15
2022/01/18 00:46:19;;;;;;;6.40;5.30;;;19.40;33.80;;;;;;5087772;28;49042;-14
2022/01/18 00:48:47;;;;;;;6.15;5.22;;;19.40;33.80;;;;;;5087619;28;46930;-15
2022/01/18 00:51:14;;;;;;;5.32;4.82;;;19.40;33.80;;;;;;5087834;28;46805;-15
2022/01/18 00:53:42;;;;;;;5.55;4.90;;;19.40;33.70;;;;;;5087845;28;47271;-14
2022/01/18 00:56:18;;;;;;;6.43;5.15;;;19.40;33.70;;;;;;5087616;28;48055;-14
2022/01/18 00:58:46;;;;;;;5.82;4.95;;;19.40;33.60;;;;;;5087442;28;46849;-16
2022/01/18 01:01:13;;;;;;;5.93;4.43;;;19.40;33.70;;;;;;5087409;28;46897;-15
2022/01/18 01:03:40;;;;;;;5.78;4.90;;;19.40;33.70;;;;;;5087703;28;46889;-14
2022/01/18 01:06:08;;;;;;;5.00;4.50;;;19.30;33.70;;;;;;5087307;28;48809;-14
2022/01/18 01:08:35;;;;;;;5.70;4.75;;;19.30;33.70;;;;;;5087368;28;47165;-15
2022/01/18 01:11:02;;;;;;;8.23;4.95;;;19.30;33.60;;;;;;5087502;28;46811;-15
2022/01/18 01:13:30;;;;;;;4.88;4.38;;;19.30;33.60;;;;;;5087218;28;47004;-14
2022/01/18 01:16:07;;;;;;;5.68;4.65;;;19.30;33.60;;;;;;5087281;28;48043;-14
2022/01/18 01:18:43;;;;;;;5.70;4.70;;;19.30;33.70;;;;;;5087163;28;46975;-15
2022/01/18 01:32:39;;;;;;;5.97;4.72;;;19.30;33.60;;;;;;5084392;28;46958;-14
2022/01/18 01:35:11;;;;;;;5.10;4.45;;;19.20;33.50;;;;;;5087090;28;47323;-14
2022/01/18 01:43:20;;;;;;;5.20;4.03;;;19.20;33.60;;;;;;5084585;28;46988;-15
2022/01/18 01:45:48;;;;;;;5.38;4.18;;;19.20;33.50;;;;;;5087516;27;47155;-14
2022/01/18 01:48:17;;;;;;;5.68;4.40;;;19.20;33.50;;;;;;5086505;28;49078;-15
2022/01/18 01:50:48;;;;;;;6.00;4.60;;;19.20;33.50;;;;;;5086767;28;47201;-15
2022/01/18 01:53:17;;;;;;;5.22;4.35;;;19.20;33.50;;;;;;5086413;28;46825;-14
2022/01/18 01:55:43;;;;;;;6.65;4.72;;;19.20;33.50;;;;;;5086218;27;46909;-15
2022/01/18 01:58:10;;;;;;;7.45;4.00;;;19.20;33.50;;;;;;5086767;28;47239;-15
2022/01/18 02:00:44;;;;;;;5.80;4.20;;;19.10;33.50;;;;;;5086649;28;46904;-15
2022/01/18 02:03:10;;;;;;;5.47;4.40;;;19.20;33.50;;;;;;5086530;28;46800;-15
2022/01/18 02:05:37;;;;;;;4.93;4.43;;;19.20;33.50;;;;;;5086897;28;46923;-14
2022/01/18 02:08:07;;;;;;;6.13;4.32;;;19.10;33.50;;;;;;5086181;28;47700;-14
2022/01/18 02:10:35;;;;;;;5.13;4.53;;;19.10;33.50;;;;;;5086153;28;46945;-15
2022/01/18 02:13:02;;;;;;;6.40;4.35;;;19.10;33.50;;;;;;5086203;28;47016;-14
2022/01/18 02:15:28;;;;;;;5.07;4.55;;;19.10;33.50;;;;;;5086401;28;47068;-14
2022/01/18 02:23:27;;;;;;;4.68;4.07;;;19.20;33.50;;;;;;5084434;28;46938;-15
2022/01/18 02:25:53;;;;;;;5.53;4.22;;;19.10;33.40;;;;;;5086203;28;46846;-14
2022/01/18 02:28:21;;;;;;;4.88;3.75;;;19.10;33.40;;;;;;5086161;28;48479;-14
2022/01/18 02:30:48;;;;;;;5.97;4.38;;;19.10;33.50;;;;;;5086064;28;46957;-14
2022/01/18 02:33:14;;;;;;;4.07;3.65;;;19.10;33.50;;;;;;5085589;28;46816;-14
2022/01/18 02:35:43;;;;;;;4.28;3.88;;;19.10;33.50;;;;;;5086331;28;47205;-16
2022/01/18 02:38:09;;;;;;;4.75;4.30;;;19.10;33.40;;;;;;5085800;28;47959;-14
2022/01/18 02:40:36;;;;;;;4.75;4.25;;;19.20;33.40;;;;;;5086014;28;47113;-15
2022/01/18 02:43:46;;;;;;;5.72;4.22;;;19.10;33.40;;;;;;5085953;28;47064;-14
2022/01/18 02:45:52;;;;;;;4.40;3.65;;;19.10;33.40;;;;;;5086077;28;47029;-15
2022/01/18 02:48:19;;;;;;;4.70;3.80;;;19.10;33.40;;;;;;5085331;28;47875;-14
2022/01/18 02:50:48;;;;;;;4.50;4.07;;;19.10;33.40;;;;;;5085557;28;47004;-15
2022/01/18 02:53:16;;;;;;;4.75;3.92;;;19.10;33.50;;;;;;5085664;28;46748;-15
2022/01/18 02:55:43;;;;;;;4.32;3.72;;;19.10;33.40;;;;;;5085760;28;46889;-15
2022/01/18 02:58:10;;;;;;;4.10;3.60;;;19.10;33.40;;;;;;5085462;28;48906;-15
2022/01/18 03:00:45;;;;;;;4.10;3.70;;;19.10;33.40;;;;;;5085475;27;46919;-15
2022/01/18 03:03:13;;;;;;;4.00;3.60;;;19.10;33.40;;;;;;5085688;28;46845;-15
2022/01/18 03:05:40;;;;;;;4.75;3.88;;;19.10;33.50;;;;;;5085955;28;47013;-15
2022/01/18 03:08:10;;;;;;;5.20;3.83;;;19.10;33.50;;;;;;5083977;28;49251;-14
2022/01/18 03:10:37;;;;;;;4.45;3.92;;;19.10;33.40;;;;;;5085545;28;46980;-15
2022/01/18 03:13:04;;;;;;;5.30;4.18;;;19.10;33.40;;;;;;5085492;28;46878;-15
2022/01/18 03:15:31;;;;;;;4.57;3.75;;;19.20;33.40;;;;;;5085629;28;47050;-15
2022/01/18 03:17:57;;;;;;;3.65;3.30;;;19.10;33.30;;;;;;5085396;28;48238;-15
2022/01/18 03:20:25;;;;;;;4.47;3.78;;;19.10;33.40;;;;;;5085488;28;46862;-14
2022/01/18 03:22:51;;;;;;;5.30;4.10;;;19.10;33.40;;;;;;5085371;28;46925;-14
2022/01/18 03:25:29;;;;;;;3.90;3.47;;;19.10;33.40;;;;;;5085501;28;46915;-14
2022/01/18 03:28:04;;;;;;;4.22;3.45;;;19.10;33.40;;;;;;5085360;28;47882;-14
2022/01/18 03:30:31;;;;;;;4.72;3.30;;;19.10;33.40;;;;;;5085090;28;47392;-15
2022/01/18 03:32:57;;;;;;;4.15;3.58;;;19.20;33.40;;;;;;5084968;28;46821;-15
2022/01/18 03:35:24;;;;;;;3.75;3.22;;;19.20;33.30;;;;;;5085234;28;46890;-15
2022/01/18 03:37:51;;;;;;;4.63;3.33;;;19.20;33.40;;;;;;5085291;28;48163;-15
2022/01/18 03:40:18;;;;;;;3.80;3.22;;;19.10;33.40;;;;;;5085051;28;46866;-14
2022/01/18 03:42:46;;;;;;;4.75;3.88;;;19.10;33.40;;;;;;5085024;28;46934;-15
2022/01/18 03:45:14;;;;;;;3.60;3.30;;;19.10;33.40;;;;;;5085208;28;47245;-14
2022/01/18 03:47:41;;;;;;;3.20;2.90;;;19.10;33.40;;;;;;5084964;28;48058;-15
2022/01/18 03:50:09;;;;;;;4.65;3.30;;;19.10;33.40;;;;;;5085077;28;46911;-15
2022/01/18 03:52:35;;;;;;;4.45;3.22;;;19.20;33.40;;;;;;5084811;28;46886;-15
2022/01/18 03:55:02;;;;;;;4.20;3.22;;;19.10;33.40;;;;;;5085404;28;46870;-14
2022/01/18 03:57:29;;;;;;;3.42;2.92;;;19.10;33.50;;;;;;5084727;28;46761;-14
2022/01/18 03:59:57;;;;;;;3.42;3.10;;;19.10;33.40;;;;;;5085101;28;47052;-14
2022/01/18 04:02:23;;;;;;;3.78;3.25;;;19.10;33.40;;;;;;5085343;28;46857;-14
2022/01/18 04:04:50;;;;;;;3.55;3.05;;;19.20;33.40;;;;;;5085149;28;46896;-15
2022/01/18 04:07:17;;;;;;;3.72;2.47;;;19.20;33.40;;;;;;5085045;28;48225;-15
2022/01/18 04:09:44;;;;;;;3.15;2.85;;;19.20;33.40;;;;;;5084362;28;46898;-14
2022/01/18 04:12:11;;;;;;;3.45;3.15;;;19.20;33.40;;;;;;5084609;28;46946;-16
2022/01/18 04:14:37;;;;;;;3.25;2.85;;;19.10;33.30;;;;;;5084817;28;46790;-14
2022/01/18 04:17:13;;;;;;;3.40;3.10;;;19.10;33.40;;;;;;5084579;28;46892;-15
2022/01/18 04:28:00;;;;;;;3.70;3.03;;;19.20;33.30;;;;;;5085338;28;46810;-14
2022/01/18 04:30:27;;;;;;;3.53;2.95;;;19.20;33.30;;;;;;5087902;28;47132;-15
2022/01/18 04:32:55;;;;;;;3.63;3.00;;;19.20;33.40;;;;;;5087684;28;46821;-14
2022/01/18 04:35:21;;;;;;;2.90;2.70;;;19.10;33.40;;;;;;5088176;28;46950;-15
2022/01/18 04:37:48;;;;;;;3.97;3.05;;;19.20;33.40;;;;;;5087743;28;46882;-15
2022/01/18 04:40:18;;;;;;;3.83;2.85;;;19.10;33.40;;;;;;5087967;28;46840;-14
2022/01/18 04:48:31;;;;;;;2.92;2.72;;;19.10;33.40;;;;;;5076964;27;47435;-15
2022/01/18 04:50:59;;;;;;;3.25;2.75;;;19.10;33.50;;;;;;5087579;28;47437;-15
2022/01/18 04:53:29;;;;;;;3.13;2.80;;;19.10;33.50;;;;;;5087897;28;46911;-15
2022/01/18 04:55:57;;;;;;;3.03;2.75;;;19.10;33.40;;;;;;5087717;28;46927;-15
2022/01/18 04:58:23;;;;;;;3.53;2.95;;;19.10;33.40;;;;;;5087534;28;49156;-14
2022/01/18 05:00:50;;;;;;;3.25;2.83;;;19.10;33.30;;;;;;5087771;27;46939;-16
2022/01/18 05:03:17;;;;;;;3.13;2.60;;;19.20;33.30;;;;;;5087341;28;46947;-15
2022/01/18 05:05:45;;;;;;;3.05;2.78;;;19.10;33.30;;;;;;5087536;28;46911;-14
2022/01/18 05:08:13;;;;;;;3.28;2.67;;;19.10;33.40;;;;;;5087116;28;47831;-14
2022/01/18 05:10:41;;;;;;;3.17;2.78;;;19.10;33.40;;;;;;5087525;28;47018;-15
2022/01/18 05:13:18;;;;;;;2.70;2.47;;;19.10;33.40;;;;;;5087304;28;46902;-14
2022/01/18 05:15:50;;;;;;;3.58;2.63;;;19.10;33.40;;;;;;5087666;28;47079;-15
2022/01/18 05:21:17;;;;;;;3.10;2.60;;;19.10;33.20;;;;;;5084585;28;46997;-12
2022/01/18 05:23:44;;;;;;;2.78;2.22;;;19.10;33.30;;;;;;5087163;28;46993;-12
2022/01/18 05:26:10;;;;;;;3.10;2.70;;;19.10;33.30;;;;;;5087234;28;46936;-12
2022/01/18 05:28:37;;;;;;;2.58;2.22;;;19.10;33.40;;;;;;5086837;28;48360;-13
2022/01/18 05:31:04;;;;;;;3.05;2.70;;;19.10;33.40;;;;;;5086004;27;46981;-13
2022/01/18 05:33:30;;;;;;;2.72;2.40;;;19.10;33.30;;;;;;5086275;28;47024;-12
2022/01/18 05:35:57;;;;;;;2.40;2.10;;;19.00;33.30;;;;;;5087119;28;46874;-13
2022/01/18 05:38:25;;;;;;;2.95;2.47;;;19.00;33.20;;;;;;5086740;28;48199;-13
2022/01/18 05:40:52;;;;;;;2.78;2.38;;;19.00;33.20;;;;;;5086992;28;47458;-13
2022/01/18 05:43:19;;;;;;;2.47;2.28;;;19.00;33.40;;;;;;5086797;28;46894;-12
2022/01/18 05:45:45;;;;;;;2.60;2.40;;;19.00;33.40;;;;;;5087295;28;46876;-13
2022/01/18 05:48:12;;;;;;;2.83;2.45;;;19.00;33.30;;;;;;5086810;28;48117;-12
2022/01/18 05:50:39;;;;;;;3.25;2.58;;;19.00;33.30;;;;;;5086801;28;46850;-13
2022/01/18 05:53:06;;;;;;;3.00;2.47;;;19.00;33.20;;;;;;5086416;28;46940;-13
2022/01/18 05:55:34;;;;;;;3.17;2.42;;;19.00;33.20;;;;;;5086735;28;47027;-13
2022/01/18 05:58:00;;;;;;;2.78;2.50;;;19.00;33.20;;;;;;5086647;28;46947;-12
2022/01/18 06:00:28;;;;;;;2.70;2.47;;;19.00;33.20;;;;;;5086784;28;47091;-13
2022/01/18 06:03:02;;;;;;;2.90;2.28;;;19.00;33.30;;;;;;5086630;28;46934;-12
2022/01/18 06:08:13;;;;;;;3.35;2.47;;;19.00;33.20;;;;;;5084274;28;47561;-12
2022/01/18 06:10:41;;;;;;;2.83;2.13;;;19.00;33.10;;;;;;5086445;28;47112;-13
2022/01/18 06:13:08;;;;;;;2.50;2.30;;;18.90;33.10;;;;;;5086372;28;46882;-13
2022/01/18 06:15:35;;;;;;;2.15;1.70;;;18.90;33.20;;;;;;5086629;28;46826;-12
2022/01/18 06:18:02;;;;;;;2.42;2.00;;;18.90;33.20;;;;;;5086040;28;48270;-12
2022/01/18 06:20:29;;;;;;;2.97;2.20;;;18.90;33.20;;;;;;5086410;28;46890;-13
2022/01/18 06:22:55;;;;;;;2.13;1.83;;;18.90;33.20;;;;;;5086136;27;46887;-12
2022/01/18 06:25:22;;;;;;;2.72;2.00;;;18.90;33.10;;;;;;5086803;28;46912;-13
2022/01/18 06:27:51;;;;;;;2.47;2.20;;;18.90;33.10;;;;;;5085979;27;48480;-12
2022/01/18 06:30:18;;;;;;;2.47;1.98;;;18.90;33.10;;;;;;5085857;28;47699;-13
2022/01/18 06:32:45;;;;;;;2.08;1.88;;;18.90;33.00;;;;;;5085853;27;46936;-12
2022/01/18 06:35:12;;;;;;;2.35;1.92;;;18.90;33.10;;;;;;5086519;28;46911;-12
2022/01/18 06:37:39;;;;;;;2.65;2.17;;;18.90;33.10;;;;;;5085957;28;48908;-13
2022/01/18 06:40:08;;;;;;;2.60;2.08;;;18.90;33.00;;;;;;5086308;28;47242;-16
2022/01/18 06:42:34;;;;;;;2.45;2.25;;;18.90;33.00;;;;;;5085803;27;46899;-18
2022/01/18 06:45:02;;;;;;;2.42;2.15;;;18.90;33.00;;;;;;5085686;28;47107;-18
2022/01/18 06:47:29;;;;;;;2.22;2.00;;;18.90;33.00;;;;;;5084713;28;47901;-17
2022/01/18 06:49:56;;;;;;;3.35;2.38;;;18.90;32.90;;;;;;5085607;28;46842;-20
2022/01/18 06:52:23;;;;;;;2.30;2.10;;;18.90;33.10;;;;;;5086062;28;47003;-20
2022/01/18 06:54:50;;;;;;;2.60;2.40;;;18.90;33.10;;;;;;5085953;28;46905;-20
2022/01/18 06:57:16;;;;;;;3.05;2.80;;;18.90;33.10;;;;;;5085891;28;48280;-20
2022/01/18 06:59:43;;;;;;;3.42;2.53;;;18.90;33.10;;;;;;5085563;28;46960;-20
2022/01/18 07:02:11;;;;;;;2.88;2.28;;;18.90;33.00;;;;;;5085259;28;46841;-20
2022/01/18 07:04:38;;;;;;;3.50;2.83;;;18.80;33.00;;;;;;5083958;28;47156;-20
2022/01/18 07:07:05;;;;;;;2.40;2.20;;;18.80;33.10;;;;;;5085594;28;48860;-20
2022/01/18 07:09:32;;;;;;;2.30;2.10;;;18.80;33.30;;;;;;5085474;28;46940;-20
2022/01/18 07:12:00;;;;;;;2.60;2.40;;;18.90;33.10;;;;;;5066225;28;46845;-21
2022/01/18 07:14:27;;;;;;;3.15;2.58;;;18.90;33.00;;;;;;5065236;28;47441;-21
2022/01/18 07:16:53;;;;;;;2.78;2.50;;;18.90;33.00;;;;;;5064911;28;47069;-21
2022/01/18 07:19:21;;;;;;;3.08;2.63;;;18.90;33.00;;;;;;5064774;28;47077;-20
2022/01/18 07:21:48;;;;;;;3.25;2.47;;;18.90;33.10;;;;;;5065051;28;46986;-20
2022/01/18 07:24:17;;;;;;;3.08;2.40;;;18.80;33.00;;;;;;5065120;28;46870;-20
2022/01/18 07:26:46;;;;;;;3.20;2.28;;;18.90;33.10;;;;;;5064737;28;49260;-18
2022/01/18 07:29:13;;;;;;;2.70;2.50;;;18.90;33.10;;;;;;5064642;28;46900;-19
2022/01/18 07:31:39;;;;;;;3.10;2.80;;;18.90;33.10;;;;;;5065017;28;46772;-22
2022/01/18 07:34:06;;;;;;;2.50;2.30;;;18.90;33.10;;;;;;5065029;28;46894;-17
2022/01/18 07:36:34;;;;;;;3.22;2.50;;;18.90;33.10;;;;;;5064850;28;49035;-17
2022/01/18 07:39:01;;;;;;;3.58;2.60;;;18.80;33.10;;;;;;5064867;28;47284;-18
2022/01/18 07:41:27;;;;;;;2.78;2.58;;;18.80;33.20;;;;;;5064965;28;46984;-18
2022/01/18 07:43:54;;;;;;;2.95;2.70;;;18.80;33.20;;;;;;5064966;28;46823;-18
2022/01/18 07:46:21;;;;;;;3.35;2.92;;;18.90;33.20;;;;;;5064850;28;48908;-19
2022/01/18 07:48:47;;;;;;;3.38;3.08;;;18.90;33.10;;;;;;5064347;28;47219;-19
2022/01/18 07:51:16;;;;;;;2.85;2.60;;;18.90;33.10;;;;;;5064836;28;46887;-18
2022/01/18 07:53:44;;;;;;;3.40;3.10;;;18.90;33.20;;;;;;5065346;28;47005;-18
2022/01/18 07:56:10;;;;;;;3.20;2.90;;;18.90;33.20;;;;;;5068252;28;49212;-17
2022/01/18 07:58:37;;;;;;;3.40;2.70;;;18.90;33.20;;;;;;5067901;28;47033;-18
2022/01/18 08:01:04;;;;;;;3.83;3.33;;;18.90;33.20;;;;;;5068604;28;46881;-18
2022/01/18 08:03:30;;;;;;;4.40;2.97;;;18.90;33.20;;;;;;5068437;28;46840;-18
2022/01/18 08:05:57;;;;;;;3.90;2.85;;;18.90;33.10;;;;;;5068186;28;47907;-18
2022/01/18 08:08:26;;;;;;;3.00;2.80;;;18.90;33.10;;;;;;5067978;28;46823;-22
2022/01/18 08:10:54;;;;;;;2.88;2.60;;;18.90;33.20;;;;;;5067991;28;46799;-19
2022/01/18 08:13:25;;;;;;;3.47;2.70;;;18.90;33.20;;;;;;5068041;28;47295;-19
2022/01/18 08:15:58;;;;;;;4.50;3.08;;;18.90;33.20;;;;;;5088508;28;46797;-19
2022/01/18 08:18:25;;;;;;;3.30;2.78;;;18.90;33.20;;;;;;5088143;28;47548;-19
2022/01/18 08:20:51;;;;;;;3.30;2.90;;;18.90;33.20;;;;;;5088075;28;46829;-19
2022/01/18 08:23:18;;;;;;;3.58;2.85;;;18.90;33.20;;;;;;5088082;28;46921;-18
2022/01/18 08:25:45;;;;;;;3.80;3.38;;;19.00;33.20;;;;;;5085745;28;48501;-19
2022/01/18 08:28:13;;;;;;;3.30;3.00;;;19.00;33.10;;;;;;5087706;28;46898;-19
2022/01/18 08:30:42;;;;;;;4.18;3.03;;;18.90;33.20;;;;;;5088125;28;46893;-20
2022/01/18 08:33:09;;;;;;;3.55;2.95;;;18.90;33.10;;;;;;5078932;27;47301;-20
2022/01/18 08:35:37;;;;;;;3.53;3.05;;;18.90;33.20;;;;;;5075968;28;49072;-20
2022/01/18 08:38:04;;;;;;;4.15;3.38;;;19.00;33.20;;;;;;5069285;28;46960;-19
2022/01/18 08:40:31;;;;;;;3.50;3.20;;;19.00;33.20;;;;;;5066727;28;46869;-19
2022/01/18 08:42:58;;;;;;;3.40;3.10;;;19.00;33.20;;;;;;5066722;28;46883;-19
2022/01/18 08:45:26;;;;;;;3.58;3.15;;;19.00;33.20;;;;;;5067464;28;49145;-19
2022/01/18 08:47:52;;;;;;;3.60;3.30;;;18.90;33.20;;;;;;5067340;28;46952;-21
2022/01/18 08:50:19;;;;;;;3.60;3.20;;;18.90;33.20;;;;;;5067505;28;46874;-19
2022/01/18 08:52:50;;;;;;;4.97;3.15;;;19.00;33.30;;;;;;5067654;28;46906;-19
2022/01/18 08:55:17;;;;;;;3.50;3.17;;;19.00;33.20;;;;;;5067296;28;48883;-18
2022/01/18 08:57:44;;;;;;;3.42;3.10;;;19.00;33.20;;;;;;5067389;28;47056;-19
2022/01/18 09:00:11;;;;;;;3.70;3.33;;;19.00;33.20;;;;;;5067275;28;46818;-19
2022/01/18 09:02:39;;;;;;;3.88;3.10;;;19.00;33.20;;;;;;5067633;28;47047;-19
2022/01/18 09:05:06;;;;;;;3.47;3.05;;;19.00;33.20;;;;;;5067194;28;46934;-19
2022/01/18 09:07:35;;;;;;;4.85;3.42;;;19.00;33.20;;;;;;5067134;28;47091;-19
2022/01/18 09:10:06;;;;;;;4.15;3.55;;;19.00;33.20;;;;;;5067181;28;46798;-19
2022/01/18 09:12:33;;;;;;;3.40;3.10;;;19.00;33.20;;;;;;5067129;28;47229;-19
2022/01/18 09:15:00;;;;;;;3.63;3.22;;;19.00;33.10;;;;;;5067063;28;46912;-19
2022/01/18 09:17:28;;;;;;;4.03;3.33;;;19.00;33.10;;;;;;5066962;28;47582;-19
2022/01/18 09:19:56;;;;;;;4.32;3.15;;;19.00;33.20;;;;;;5067070;28;46918;-19
2022/01/18 09:22:23;;;;;;;3.40;3.10;;;19.00;33.20;;;;;;5066419;28;46969;-19
2022/01/18 09:24:49;;;;;;;4.13;3.30;;;19.00;33.20;;;;;;5066652;28;48229;-18
2022/01/18 09:27:17;;;;;;;4.28;3.65;;;19.00;33.20;;;;;;5066847;28;46918;-18
2022/01/18 09:29:43;;;;;;;4.20;3.65;;;19.00;33.10;;;;;;5066699;28;46928;-19
2022/01/18 09:32:11;;;;;;;4.03;3.63;;;19.00;33.10;;;;;;5067014;28;46917;-19
2022/01/18 09:34:38;;;;;;;3.78;3.40;;;19.00;33.10;;;;;;5065847;28;48133;-19
2022/01/18 09:37:06;;;;;;;3.47;3.17;;;19.00;33.00;;;;;;5066781;28;47407;-19
2022/01/18 09:39:33;;;;;;;4.93;3.45;;;19.00;33.10;;;;;;5066545;28;46757;-18
2022/01/18 09:42:02;;;;;;;4.25;3.42;;;19.00;33.20;;;;;;5067091;28;47128;-18
2022/01/18 09:44:30;;;;;;;3.75;3.35;;;19.00;33.20;;;;;;5066492;28;48538;-20
2022/01/18 09:46:56;;;;;;;3.55;3.25;;;19.00;33.10;;;;;;5066649;28;46914;-19
2022/01/18 09:49:24;;;;;;;4.30;3.30;;;19.00;33.20;;;;;;5066312;28;47086;-19
2022/01/18 09:51:51;;;;;;;3.50;3.20;;;18.90;33.30;;;;;;5066682;28;46882;-19
2022/01/18 09:54:19;;;;;;;4.55;3.67;;;18.90;33.30;;;;;;5064973;28;48037;-19
2022/01/18 09:56:46;;;;;;;5.47;3.58;;;19.00;33.40;;;;;;5065295;28;46925;-19
2022/01/18 09:59:12;;;;;;;4.22;3.83;;;19.00;33.30;;;;;;5065958;28;46797;-19
2022/01/18 10:01:39;;;;;;;3.53;3.03;;;19.00;33.20;;;;;;5066627;28;46939;-19
2022/01/18 10:04:17;;;;;;;3.42;3.13;;;19.00;33.20;;;;;;5066164;28;48045;-19
2022/01/18 10:06:46;;;;;;;4.05;3.15;;;19.10;33.20;;;;;;5065694;28;47403;-20
2022/01/18 10:09:12;;;;;;;3.33;3.03;;;19.10;33.00;;;;;;5065458;28;46927;-19
2022/01/18 10:11:56;;;;;;;3.95;3.28;;;19.10;33.20;;;;;;5069141;28;47319;-20
2022/01/18 10:14:22;;;;;;;4.57;3.40;;;19.10;33.20;;;;;;5064181;28;47953;-20
2022/01/18 10:16:49;;;;;;;3.47;3.17;;;19.10;33.20;;;;;;5062845;28;47048;-19
2022/01/18 10:19:17;;;;;;;4.82;3.85;;;19.20;33.10;;;;;;5064956;28;46922;-19
2022/01/18 10:21:47;;;;;;;4.05;3.30;;;19.20;33.10;;;;;;5066140;28;47342;-19
2022/01/18 10:24:16;;;;;;;4.28;3.20;;;19.20;33.00;;;;;;5064813;28;46879;-19
2022/01/18 10:26:45;;;;;;;4.22;3.28;;;19.30;33.10;;;;;;5065757;28;47175;-19
2022/01/18 10:29:13;;;;;;;3.70;3.30;;;19.30;33.10;;;;;;5065743;28;46878;-19
2022/01/18 10:31:43;;;;;;;5.45;3.30;;;19.30;33.10;;;;;;5065832;28;47271;-19
2022/01/18 10:34:25;;;;;;;3.50;3.20;;;19.30;33.10;;;;;;5065032;28;46957;-19
2022/01/18 10:37:00;;;;;;;3.88;3.00;;;19.30;33.00;;;;;;5065901;28;46961;-19
2022/01/18 10:39:27;;;;;;;4.13;3.25;;;19.40;33.00;;;;;;5065220;28;46915;-19
2022/01/18 10:41:56;;;;;;;4.45;3.30;;;19.40;33.00;;;;;;5065868;28;46850;-19
2022/01/18 10:44:23;;;;;;;3.58;3.10;;;19.40;32.90;;;;;;5064422;28;47902;-19
2022/01/18 10:46:51;;;;;;;3.65;2.97;;;19.50;33.00;;;;;;5064861;28;47235;-20
2022/01/18 10:49:32;;;;;;;3.45;3.15;;;19.50;33.00;;;;;;5065191;28;46892;-19
2022/01/18 10:52:05;;;;;;;3.10;2.80;;;19.50;33.00;;;;;;5065671;28;46831;-19
2022/01/18 10:54:36;;;;;;;3.05;2.72;;;19.50;32.80;;;;;;5065026;28;48074;-18
2022/01/18 10:57:06;;;;;;;5.57;3.22;;;19.50;33.00;;;;;;5065190;28;46914;-19
2022/01/18 10:59:33;;;;;;;4.50;3.17;;;19.60;33.00;;;;;;5065066;28;46842;-20
2022/01/18 11:02:09;;;;;;;3.13;2.90;;;19.70;32.70;;;;;;5065568;28;47333;-19
2022/01/18 11:04:36;;;;;;;3.45;3.00;;;19.70;32.80;;;;;;5065189;28;47404;-19
2022/01/18 11:07:04;;;;;;;3.42;2.85;;;19.70;32.80;;;;;;5065387;28;46926;-20
2022/01/18 11:09:30;;;;;;;3.97;3.00;;;19.80;32.70;;;;;;5064851;28;46899;-19
2022/01/18 11:11:57;;;;;;;3.55;2.90;;;19.80;32.70;;;;;;5065360;28;46834;-20
2022/01/18 11:14:26;;;;;;;4.07;3.40;;;19.80;32.80;;;;;;5064847;28;49212;-20
2022/01/18 11:16:56;;;;;;;3.42;3.13;;;19.80;32.80;;;;;;5065213;28;46900;-18
2022/01/18 11:19:34;;;;;;;3.22;2.92;;;19.80;32.80;;;;;;5064939;28;47022;-19
2022/01/18 11:22:03;;;;;;;3.17;2.88;;;19.70;32.90;;;;;;5065517;28;46901;-20
2022/01/18 11:24:31;;;;;;;3.40;2.88;;;19.70;32.90;;;;;;5064879;28;48805;-19
2022/01/18 11:26:57;;;;;;;3.20;2.70;;;19.70;32.90;;;;;;5065171;28;46801;-19
2022/01/18 11:29:26;;;;;;;3.35;2.63;;;19.70;32.90;;;;;;5066160;28;46877;-20
2022/01/18 11:31:53;;;;;;;3.40;2.67;;;19.70;32.90;;;;;;5068910;28;46838;-19
2022/01/18 11:34:25;;;;;;;3.67;2.80;;;19.70;32.90;;;;;;5068045;28;48948;-20
2022/01/18 11:36:51;;;;;;;4.50;2.67;;;19.70;33.00;;;;;;5068641;28;47311;-20
2022/01/18 11:39:18;;;;;;;3.10;2.45;;;19.60;33.10;;;;;;5068584;28;46835;-20
2022/01/18 11:41:45;;;;;;;2.78;2.45;;;19.60;33.10;;;;;;5068625;28;47179;-19
2022/01/18 11:44:13;;;;;;;2.70;2.47;;;19.50;33.20;;;;;;5068425;28;48112;-19
2022/01/18 11:46:45;;;;;;;2.63;2.42;;;19.50;33.30;;;;;;5068453;28;47001;-19
2022/01/18 11:49:16;;;;;;;3.38;2.70;;;19.50;33.40;;;;;;5068053;28;46954;-19
2022/01/18 11:51:48;;;;;;;2.63;2.42;;;19.40;33.40;;;;;;5068436;28;46904;-19
2022/01/18 11:54:25;;;;;;;2.30;2.10;;;19.40;33.40;;;;;;5066999;28;49105;-20
2022/01/18 11:56:51;;;;;;;2.63;2.08;;;19.40;33.40;;;;;;5068159;28;47061;-19
2022/01/18 11:59:18;;;;;;;3.25;2.58;;;19.50;33.20;;;;;;5068116;28;46926;-20
2022/01/18 12:01:48;;;;;;;3.17;2.53;;;19.60;33.20;;;;;;5068108;28;47128;-20
2022/01/18 12:04:18;;;;;;;2.50;2.30;;;19.70;33.00;;;;;;5083623;27;48411;-15
2022/01/18 12:06:45;;;;;;;2.70;2.42;;;19.70;32.80;;;;;;5089653;28;47088;-14
2022/01/18 12:09:38;;;;;;;2.45;2.13;;;19.90;32.70;;;;;;5088121;28;47129;-14
2022/01/18 12:12:09;;;;;;;2.42;2.10;;;20.00;32.50;;;;;;5088688;27;47009;-14
2022/01/18 12:14:35;;;;;;;3.47;2.10;;;20.10;32.50;;;;;;5087593;28;48097;-13
2022/01/18 12:17:16;;;;;;;2.55;2.20;;;20.20;32.20;;;;;;5087612;28;47173;-13
2022/01/18 12:19:44;;;;;;;2.42;2.22;;;20.20;32.20;;;;;;5086747;28;46909;-14
2022/01/18 12:22:11;;;;;;;2.13;1.92;;;20.30;32.20;;;;;;5087533;28;47258;-15
2022/01/18 12:24:40;;;;;;;2.55;2.22;;;20.30;32.10;;;;;;5086925;28;47859;-14
2022/01/18 12:27:29;;;;;;;2.33;2.13;;;20.30;32.00;;;;;;5087265;28;46890;-14
2022/01/18 12:30:15;;;;;;;2.17;1.90;;;20.40;32.00;;;;;;5087106;27;46991;-14
2022/01/18 12:32:57;;;;;;;2.58;2.25;;;20.40;31.90;;;;;;5087890;27;46958;-14
2022/01/18 12:35:26;;;;;;;2.55;2.05;;;20.50;31.90;;;;;;5087774;28;48477;-14
2022/01/18 12:37:54;;;;;;;2.30;2.00;;;20.50;31.80;;;;;;5087462;28;46964;-15
2022/01/18 12:40:29;;;;;;;2.20;2.00;;;20.50;31.70;;;;;;5087434;27;46748;-14
2022/01/18 12:45:51;;;;;;;2.50;1.98;;;20.60;31.50;;;;;;5085091;28;47001;-14
2022/01/18 12:48:20;;;;;;;1.88;1.77;;;20.60;31.60;;;;;;5088036;28;47423;-16
2022/01/18 12:50:48;;;;;;;1.80;1.70;;;20.60;31.40;;;;;;5088334;28;46977;-20
2022/01/18 12:53:16;;;;;;;2.20;2.00;;;20.60;31.60;;;;;;5087465;28;46933;-20
2022/01/18 12:55:45;;;;;;;2.47;2.22;;;20.60;31.60;;;;;;5087412;28;48020;-20
2022/01/18 12:58:14;;;;;;;2.15;1.95;;;20.60;31.70;;;;;;5087595;28;47013;-19
2022/01/18 13:00:43;;;;;;;2.25;2.03;;;20.50;31.60;;;;;;5086530;28;46916;-20
2022/01/18 13:03:10;;;;;;;2.95;1.90;;;20.50;31.70;;;;;;5087265;28;47270;-20
2022/01/18 13:05:39;;;;;;;1.60;1.50;;;20.40;31.90;;;;;;5086786;28;48226;-20
2022/01/18 13:08:06;;;;;;;2.10;1.85;;;20.30;32.10;;;;;;5086631;28;46909;-20
2022/01/18 13:10:41;;;;;;;2.40;1.65;;;20.20;32.30;;;;;;5093543;27;46867;-20
2022/01/18 13:13:08;;;;;;;1.85;1.35;;;20.00;33.10;;;;;;5106773;27;47080;-20
2022/01/18 13:26:54;;;;;;;4.03;1.70;;;19.40;34.10;;;;;;5093067;27;46895;-19
2022/01/18 13:29:24;;;;;;;2.97;2.00;;;19.30;34.20;;;;;;5093458;27;46873;-19
2022/01/18 13:32:00;;;;;;;3.25;2.00;;;19.20;33.40;;;;;;5087748;27;47054;-19
2022/01/18 13:34:30;;;;;;;3.50;1.63;;;19.20;33.90;;;;;;5086693;28;47122;-19
2022/01/18 13:36:58;;;;;;;2.42;1.63;;;19.20;34.10;;;;;;5088035;27;46858;-19
2022/01/18 13:39:28;;;;;;;2.08;1.40;;;19.20;34.10;;;;;;5093545;27;46984;-19
2022/01/18 13:41:54;;;;;;;3.00;1.80;;;19.30;34.00;;;;;;5095807;27;46997;-20
2022/01/18 13:44:21;;;;;;;3.80;1.77;;;19.30;34.00;;;;;;5091930;27;47171;-19
2022/01/18 13:46:48;;;;;;;1.83;1.35;;;19.40;34.00;;;;;;5095372;27;49071;-20
2022/01/18 13:49:15;;;;;;;2.05;1.90;;;19.40;33.90;;;;;;5096563;27;47377;-20
2022/01/18 13:52:01;;;;;;;4.95;1.58;;;19.40;33.90;;;;;;5065501;28;46838;-19
2022/01/18 13:54:28;;;;;;;1.95;1.70;;;19.40;33.90;;;;;;5066762;28;47023;-19
2022/01/18 13:56:55;;;;;;;2.58;1.60;;;19.40;33.90;;;;;;5066502;28;47133;-18